Search METAR Data

METAR Data for ENST:

ENST 241120Z 21005KT 9999 VCSH FEW010TCU BKN015 04/02 Q1009 RMK WIND AT 300FT 20006KT